createdAt,value
2017-06-05T00:02:08.940Z,16.60
2017-06-05T00:04:35.337Z,16.60
2017-06-05T00:07:01.623Z,16.60
2017-06-05T00:09:28.641Z,16.60
2017-06-05T00:11:54.889Z,16.70
2017-06-05T00:14:21.162Z,16.80
2017-06-05T00:16:47.437Z,16.80
2017-06-05T00:19:13.702Z,16.80
2017-06-05T00:21:39.945Z,16.80
2017-06-05T00:24:06.222Z,16.80
2017-06-05T00:26:32.458Z,16.80
2017-06-05T00:28:58.706Z,16.80
2017-06-05T00:31:24.966Z,16.90
2017-06-05T00:33:51.205Z,16.80
2017-06-05T00:36:17.477Z,16.80
2017-06-05T00:38:43.722Z,16.80
2017-06-05T00:41:10.005Z,16.70
2017-06-05T00:43:36.636Z,16.60
2017-06-05T00:46:03.273Z,16.60
2017-06-05T00:48:29.549Z,16.60
2017-06-05T00:50:55.805Z,16.50
2017-06-05T00:53:22.067Z,16.60
2017-06-05T00:55:48.301Z,16.70
2017-06-05T00:58:14.601Z,16.70
2017-06-05T01:00:40.841Z,16.80
2017-06-05T01:03:07.469Z,16.80
2017-06-05T01:05:34.381Z,16.80
2017-06-05T01:08:00.617Z,16.80
2017-06-05T01:10:26.872Z,16.70
2017-06-05T01:12:53.205Z,16.70
2017-06-05T01:15:19.477Z,16.70
2017-06-05T01:17:45.728Z,16.80
2017-06-05T01:20:12.002Z,16.80
2017-06-05T01:22:38.277Z,16.80
2017-06-05T01:25:04.520Z,16.80
2017-06-05T01:27:31.411Z,16.90
2017-06-05T01:29:58.037Z,16.80
2017-06-05T01:32:24.678Z,16.80
2017-06-05T01:34:51.341Z,16.90
2017-06-05T01:37:18.390Z,16.80
2017-06-05T01:39:44.693Z,16.80
2017-06-05T01:42:10.978Z,16.90
2017-06-05T01:44:37.255Z,17.00
2017-06-05T01:47:03.977Z,16.90
2017-06-05T01:49:30.263Z,16.90
2017-06-05T01:51:56.552Z,16.90
2017-06-05T01:54:23.246Z,16.80
2017-06-05T01:56:49.521Z,16.80
2017-06-05T01:59:15.776Z,16.80
2017-06-05T02:01:42.057Z,16.80
2017-06-05T02:04:08.319Z,16.80
2017-06-05T02:06:34.638Z,16.70
2017-06-05T02:09:00.889Z,16.60
2017-06-05T02:11:27.157Z,16.60
2017-06-05T02:13:53.554Z,16.60
2017-06-05T02:16:20.480Z,16.60
2017-06-05T02:18:46.740Z,16.70
2017-06-05T02:21:13.013Z,16.70
2017-06-05T02:23:39.277Z,16.70
2017-06-05T02:26:05.541Z,16.60
2017-06-05T02:28:31.822Z,16.50
2017-06-05T02:30:58.449Z,16.50
2017-06-05T02:33:25.071Z,16.50
2017-06-05T02:35:51.501Z,16.50
2017-06-05T02:38:17.753Z,16.40
2017-06-05T02:40:45.395Z,16.40
2017-06-05T02:43:13.005Z,16.40
2017-06-05T02:45:39.257Z,16.40
2017-06-05T02:48:05.556Z,16.40
2017-06-05T02:50:31.873Z,16.40
2017-06-05T02:52:58.134Z,16.40
2017-06-05T02:55:24.406Z,16.30
2017-06-05T02:57:50.673Z,16.20
2017-06-05T03:00:16.989Z,16.30
2017-06-05T03:02:43.262Z,16.20
2017-06-05T03:05:09.562Z,16.20
2017-06-05T03:07:35.850Z,16.20
2017-06-05T03:10:02.137Z,16.10
2017-06-05T03:12:28.418Z,16.10
2017-06-05T03:14:55.059Z,16.10
2017-06-05T03:17:22.088Z,16.10
2017-06-05T03:19:48.361Z,16.10
2017-06-05T03:22:15.226Z,16.10
2017-06-05T03:24:41.590Z,16.10
2017-06-05T03:27:07.869Z,16.10
2017-06-05T03:29:34.130Z,16.20
2017-06-05T03:32:00.372Z,16.20
2017-06-05T03:34:27.421Z,16.10
2017-06-05T03:36:53.686Z,16.20
2017-06-05T03:39:19.921Z,16.10
2017-06-05T03:41:46.208Z,16.10
2017-06-05T03:44:12.454Z,16.10
2017-06-05T03:46:39.125Z,16.20
2017-06-05T03:49:05.409Z,16.20
2017-06-05T03:51:32.028Z,16.20
2017-06-05T03:53:58.260Z,16.20
2017-06-05T03:56:24.522Z,16.20
2017-06-05T03:58:50.787Z,16.20
2017-06-05T04:01:17.033Z,16.20
2017-06-05T04:03:43.301Z,16.10
2017-06-05T04:06:09.922Z,16.10
2017-06-05T04:08:36.357Z,16.10
2017-06-05T04:11:02.601Z,16.10
2017-06-05T04:13:29.215Z,16.20
2017-06-05T04:15:55.961Z,16.20
2017-06-05T04:18:22.221Z,16.10
2017-06-05T04:20:48.474Z,16.20
2017-06-05T04:23:14.761Z,16.30
2017-06-05T04:25:41.590Z,16.50
2017-06-05T04:28:08.022Z,16.50
2017-06-05T04:30:34.265Z,16.50
2017-06-05T04:33:00.905Z,16.40
2017-06-05T04:35:27.541Z,16.40
2017-06-05T04:37:54.225Z,16.50
2017-06-05T04:40:20.507Z,16.40
2017-06-05T04:42:46.765Z,16.60
2017-06-05T04:45:13.051Z,16.70
2017-06-05T04:47:39.484Z,16.70
2017-06-05T04:50:05.774Z,16.70
2017-06-05T04:52:32.032Z,16.80
2017-06-05T04:54:58.300Z,16.80
2017-06-05T04:57:24.573Z,16.70
2017-06-05T04:59:50.840Z,16.60
2017-06-05T05:02:17.486Z,16.60
2017-06-05T05:04:44.109Z,16.70
2017-06-05T05:07:10.394Z,16.70
2017-06-05T05:09:36.645Z,16.80
2017-06-05T05:12:02.925Z,17.00
2017-06-05T05:14:29.174Z,16.90
2017-06-05T05:16:55.480Z,16.90
2017-06-05T05:19:21.750Z,16.90
2017-06-05T05:21:48.026Z,16.90
2017-06-05T05:24:14.644Z,16.90
2017-06-05T05:26:40.908Z,16.80
2017-06-05T05:29:07.145Z,16.90
2017-06-05T05:31:33.423Z,17.00
2017-06-05T05:34:00.488Z,16.90
2017-06-05T05:36:27.140Z,17.00
2017-06-05T05:38:53.757Z,16.90
2017-06-05T05:41:20.282Z,16.90
2017-06-05T05:43:46.540Z,16.90
2017-06-05T05:46:12.876Z,16.90
2017-06-05T05:48:39.692Z,16.90
2017-06-05T05:51:05.977Z,16.90
2017-06-05T05:53:32.242Z,17.00
2017-06-05T05:55:58.524Z,16.90
2017-06-05T05:58:25.108Z,16.90
2017-06-05T06:00:51.365Z,16.90
2017-06-05T06:03:17.612Z,16.90
2017-06-05T06:05:43.888Z,16.90
2017-06-05T06:08:10.142Z,16.80
2017-06-05T06:10:36.790Z,16.80
2017-06-05T06:13:03.420Z,16.80
2017-06-05T06:15:30.534Z,16.80
2017-06-05T06:17:56.832Z,16.80
2017-06-05T06:20:23.093Z,16.90
2017-06-05T06:22:49.365Z,17.00
2017-06-05T06:25:16.016Z,17.20
2017-06-05T06:27:42.298Z,17.10
2017-06-05T06:30:09.158Z,17.10
2017-06-05T06:32:36.801Z,17.20
2017-06-05T06:35:03.110Z,17.30
2017-06-05T06:37:29.958Z,17.30
2017-06-05T06:39:56.247Z,17.40
2017-06-05T06:42:22.497Z,17.40
2017-06-05T06:44:48.756Z,17.40
2017-06-05T06:47:15.104Z,17.60
2017-06-05T06:49:41.381Z,17.70
2017-06-05T06:52:07.660Z,18.00
2017-06-05T06:54:33.921Z,18.10
2017-06-05T06:57:00.517Z,18.10
2017-06-05T06:59:26.793Z,18.10
2017-06-05T07:01:53.057Z,18.30
2017-06-05T07:04:19.378Z,18.20
2017-06-05T07:06:45.666Z,18.20
2017-06-05T07:09:11.985Z,18.40
2017-06-05T07:11:38.813Z,18.60
2017-06-05T07:14:05.117Z,18.60
2017-06-05T07:16:31.487Z,18.60
2017-06-05T07:18:58.157Z,18.70
2017-06-05T07:21:24.435Z,18.70
2017-06-05T07:23:50.689Z,18.90
2017-06-05T07:26:17.237Z,19.00
2017-06-05T07:28:43.517Z,19.10
2017-06-05T07:31:09.796Z,19.20
2017-06-05T07:33:36.146Z,19.30
2017-06-05T07:36:02.422Z,19.20
2017-06-05T07:38:28.706Z,19.30
2017-06-05T07:40:54.977Z,19.30
2017-06-05T07:43:21.546Z,19.50
2017-06-05T07:45:48.051Z,19.60
2017-06-05T07:48:14.301Z,19.50
2017-06-05T07:50:41.209Z,19.60
2017-06-05T07:53:07.486Z,19.50
2017-06-05T07:55:33.734Z,19.60
2017-06-05T07:58:00.045Z,19.80
2017-06-05T08:00:26.444Z,19.90
2017-06-05T08:02:52.738Z,20.10
2017-06-05T08:05:19.010Z,20.40
2017-06-05T08:07:45.296Z,20.40
2017-06-05T08:10:11.593Z,20.60
2017-06-05T08:12:37.895Z,20.90
2017-06-05T08:15:04.197Z,20.90
2017-06-05T08:17:30.505Z,20.80
2017-06-05T08:19:56.794Z,20.80
2017-06-05T08:22:23.066Z,21.00
2017-06-05T08:24:49.360Z,21.30
2017-06-05T08:27:16.025Z,21.60
2017-06-05T08:29:42.308Z,21.60
2017-06-05T08:32:08.597Z,21.70
2017-06-05T08:34:34.921Z,21.70
2017-06-05T08:37:01.199Z,22.00
2017-06-05T08:39:27.499Z,22.00
2017-06-05T08:41:53.784Z,22.20
2017-06-05T08:44:20.102Z,22.40
2017-06-05T08:46:46.371Z,22.40
2017-06-05T08:49:12.673Z,22.40
2017-06-05T08:51:39.384Z,22.40
2017-06-05T08:54:05.668Z,22.40
2017-06-05T08:56:31.941Z,22.30
2017-06-05T08:58:58.238Z,22.10
2017-06-05T09:01:24.509Z,22.10
2017-06-05T09:03:51.143Z,22.00
2017-06-05T09:06:17.421Z,21.80
2017-06-05T09:08:43.678Z,21.80
2017-06-05T09:11:09.945Z,21.80
2017-06-05T09:13:36.600Z,22.00
2017-06-05T09:16:02.862Z,22.10
2017-06-05T09:18:29.158Z,22.20
2017-06-05T09:20:55.445Z,22.30
2017-06-05T09:23:21.773Z,22.60
2017-06-05T09:25:48.065Z,22.40
2017-06-05T09:28:14.633Z,22.40
2017-06-05T09:30:40.905Z,22.20
2017-06-05T09:33:07.190Z,22.00
2017-06-05T09:35:33.477Z,21.80
2017-06-05T09:37:59.725Z,21.90
2017-06-05T09:40:26.317Z,21.80
2017-06-05T09:42:52.980Z,21.50
2017-06-05T09:45:19.263Z,21.50
2017-06-05T09:47:45.902Z,21.50
2017-06-05T09:50:12.743Z,21.60
2017-06-05T09:52:38.987Z,21.80
2017-06-05T09:55:05.260Z,22.00
2017-06-05T09:57:31.549Z,22.00
2017-06-05T09:59:58.210Z,22.20
2017-06-05T10:02:24.601Z,22.10
2017-06-05T10:04:50.881Z,22.10
2017-06-05T10:07:17.186Z,22.10
2017-06-05T10:09:43.645Z,22.20
2017-06-05T10:12:10.218Z,22.10
2017-06-05T10:14:36.473Z,22.20
2017-06-05T10:17:02.793Z,22.30
2017-06-05T10:19:29.078Z,22.30
2017-06-05T10:21:55.361Z,22.20
2017-06-05T10:24:21.657Z,22.30
2017-06-05T10:26:48.111Z,22.30
2017-06-05T10:29:14.395Z,22.50
2017-06-05T10:31:41.068Z,22.40
2017-06-05T10:34:07.406Z,22.10
2017-06-05T10:36:33.685Z,22.20
2017-06-05T10:39:00.004Z,22.20
2017-06-05T10:41:26.264Z,22.40
2017-06-05T10:43:52.559Z,22.50
2017-06-05T10:46:18.873Z,22.50
2017-06-05T10:48:45.212Z,22.60
2017-06-05T10:51:11.543Z,22.50
2017-06-05T10:53:37.839Z,22.60
2017-06-05T10:56:04.118Z,22.60
2017-06-05T10:58:30.384Z,22.70
2017-06-05T11:00:56.675Z,22.70
2017-06-05T11:03:22.997Z,22.70
2017-06-05T11:05:49.276Z,22.60
2017-06-05T11:08:15.854Z,22.60
2017-06-05T11:10:42.516Z,22.80
2017-06-05T11:13:08.824Z,22.80
2017-06-05T11:15:35.097Z,23.00
2017-06-05T11:18:01.381Z,23.10
2017-06-05T11:20:28.881Z,23.30
2017-06-05T11:22:55.169Z,23.60
2017-06-05T11:25:21.469Z,23.70
2017-06-05T11:27:47.826Z,23.70
2017-06-05T11:30:14.108Z,23.60
2017-06-05T11:32:40.401Z,23.50
2017-06-05T11:35:06.799Z,23.40
2017-06-05T11:37:33.056Z,23.40
2017-06-05T11:39:59.337Z,23.30
2017-06-05T11:42:25.638Z,23.20
2017-06-05T11:44:51.925Z,23.00
2017-06-05T11:47:18.572Z,22.80
2017-06-05T11:49:45.217Z,22.80
2017-06-05T11:52:11.518Z,22.80
2017-06-05T11:54:37.844Z,22.70
2017-06-05T11:57:04.278Z,22.50
2017-06-05T11:59:30.533Z,22.20
2017-06-05T12:01:57.246Z,22.20
2017-06-05T12:04:23.495Z,22.20
2017-06-05T12:06:49.754Z,22.30
2017-06-05T12:09:16.076Z,22.30
2017-06-05T12:11:42.337Z,22.30
2017-06-05T12:14:08.644Z,22.20
2017-06-05T12:16:34.950Z,22.20
2017-06-05T12:19:01.256Z,22.20
2017-06-05T12:21:27.617Z,22.20
2017-06-05T12:23:53.864Z,22.30
2017-06-05T12:26:20.157Z,22.20
2017-06-05T12:28:46.413Z,22.20
2017-06-05T12:31:12.705Z,22.10
2017-06-05T12:33:39.877Z,22.00
2017-06-05T12:36:06.164Z,21.70
2017-06-05T12:38:32.484Z,21.40
2017-06-05T12:40:59.578Z,21.30
2017-06-05T12:43:25.901Z,21.00
2017-06-05T12:45:52.728Z,20.70
2017-06-05T12:48:19.166Z,20.80
2017-06-05T12:50:46.483Z,20.60
2017-06-05T12:53:12.762Z,20.60
2017-06-05T12:55:39.063Z,20.50
2017-06-05T12:58:05.347Z,20.40
2017-06-05T13:00:31.641Z,20.40
2017-06-05T13:02:57.965Z,20.40
2017-06-05T13:05:24.267Z,20.30
2017-06-05T13:07:50.529Z,20.20
2017-06-05T13:10:16.814Z,20.10
2017-06-05T13:12:43.097Z,20.10
2017-06-05T13:15:09.767Z,20.10
2017-06-05T13:17:36.078Z,20.10
2017-06-05T13:20:02.363Z,20.10
2017-06-05T13:22:28.665Z,20.00
2017-06-05T13:24:55.042Z,20.00
2017-06-05T13:27:22.294Z,20.10
2017-06-05T13:29:48.581Z,20.00
2017-06-05T13:32:14.874Z,19.90
2017-06-05T13:34:41.155Z,19.90
2017-06-05T13:37:09.328Z,20.00
2017-06-05T13:39:35.597Z,20.00
2017-06-05T13:42:01.898Z,19.90
2017-06-05T13:44:28.210Z,19.90
2017-06-05T13:46:55.406Z,19.90
2017-06-05T13:49:22.095Z,19.90
2017-06-05T13:51:48.376Z,19.90
2017-06-05T13:54:14.679Z,19.90
2017-06-05T13:56:40.946Z,19.90
2017-06-05T13:59:07.245Z,19.80
2017-06-05T14:01:33.535Z,19.90
2017-06-05T14:04:00.437Z,19.90
2017-06-05T14:06:27.133Z,19.80
2017-06-05T14:08:53.421Z,19.80
2017-06-05T14:11:19.681Z,19.60
2017-06-05T14:13:46.246Z,19.70
2017-06-05T14:16:12.561Z,19.60
2017-06-05T14:18:38.883Z,19.50
2017-06-05T14:21:05.550Z,19.40
2017-06-05T14:23:31.849Z,19.30
2017-06-05T14:25:58.956Z,19.30
2017-06-05T14:28:25.662Z,19.30
2017-06-05T14:30:51.961Z,19.30
2017-06-05T14:33:18.299Z,19.40
2017-06-05T14:35:44.838Z,19.50
2017-06-05T14:38:11.084Z,19.60
2017-06-05T14:40:37.525Z,19.70
2017-06-05T14:43:04.264Z,19.70
2017-06-05T14:45:30.800Z,19.80
2017-06-05T14:47:57.238Z,19.80
2017-06-05T14:50:23.960Z,19.90
2017-06-05T14:52:50.243Z,19.90
2017-06-05T14:55:16.533Z,19.80
2017-06-05T14:57:43.053Z,19.70
2017-06-05T15:00:10.288Z,19.70
2017-06-05T15:02:36.613Z,19.70
2017-06-05T15:05:04.496Z,19.40
2017-06-05T15:07:31.050Z,19.30
2017-06-05T15:09:57.336Z,19.30
2017-06-05T15:12:30.747Z,19.30
2017-06-05T15:14:58.598Z,19.30
2017-06-05T15:17:24.949Z,19.20
2017-06-05T15:19:52.027Z,19.30
2017-06-05T15:22:19.171Z,19.20
2017-06-05T15:24:46.387Z,19.20
2017-06-05T15:27:12.700Z,19.20
2017-06-05T15:29:40.385Z,19.20
2017-06-05T15:32:09.336Z,19.30
2017-06-05T15:34:36.880Z,19.30
2017-06-05T15:37:06.573Z,19.40
2017-06-05T15:39:37.412Z,19.40
2017-06-05T15:42:05.060Z,19.60
2017-06-05T15:44:32.731Z,19.70
2017-06-05T15:47:01.389Z,19.80
2017-06-05T15:49:30.213Z,19.80
2017-06-05T15:51:57.797Z,19.70
2017-06-05T15:54:24.095Z,19.70
2017-06-05T15:56:51.901Z,19.70
2017-06-05T15:59:18.223Z,19.80
2017-06-05T16:01:44.537Z,19.90
2017-06-05T16:04:11.162Z,19.90
2017-06-05T16:06:37.491Z,19.90
2017-06-05T16:09:04.445Z,20.00
2017-06-05T16:11:30.719Z,20.10
2017-06-05T16:13:57.023Z,20.30
2017-06-05T16:16:23.597Z,20.40
2017-06-05T16:18:50.067Z,20.60
2017-06-05T16:21:16.498Z,20.80
2017-06-05T16:23:42.824Z,20.90
2017-06-05T16:26:09.133Z,21.10
2017-06-05T16:28:36.509Z,21.30
2017-06-05T16:31:02.784Z,21.40
2017-06-05T16:33:29.071Z,21.20
2017-06-05T16:35:55.441Z,21.10
2017-06-05T16:38:21.739Z,21.00
2017-06-05T16:40:48.682Z,21.10
2017-06-05T16:43:14.986Z,21.10
2017-06-05T16:45:41.266Z,21.30
2017-06-05T16:48:07.586Z,21.20
2017-06-05T16:50:33.880Z,21.00
2017-06-05T16:53:00.187Z,20.80
2017-06-05T16:55:26.674Z,20.60
2017-06-05T16:57:53.041Z,20.40
2017-06-05T17:00:19.630Z,20.30
2017-06-05T17:02:46.057Z,20.20
2017-06-05T17:05:14.538Z,20.00
2017-06-05T17:07:41.550Z,19.90
2017-06-05T17:10:08.865Z,19.90
2017-06-05T17:12:35.195Z,19.90
2017-06-05T17:15:02.064Z,19.80
2017-06-05T17:17:28.339Z,19.80
2017-06-05T17:19:55.045Z,19.80
2017-06-05T17:22:21.356Z,19.80
2017-06-05T17:24:49.545Z,19.80
2017-06-05T17:27:17.352Z,19.80
2017-06-05T17:29:43.677Z,19.80
2017-06-05T17:32:12.161Z,19.80
2017-06-05T17:34:38.898Z,19.80
2017-06-05T17:37:05.209Z,19.80
2017-06-05T17:39:31.483Z,19.90
2017-06-05T17:41:58.407Z,20.00
2017-06-05T17:44:26.112Z,20.00
2017-06-05T17:46:52.654Z,19.90
2017-06-05T17:49:19.562Z,19.70
2017-06-05T17:51:46.229Z,19.70
2017-06-05T17:54:12.533Z,19.70
2017-06-05T17:56:38.860Z,19.70
2017-06-05T17:59:05.640Z,19.70
2017-06-05T18:01:32.828Z,19.70
2017-06-05T18:03:59.979Z,19.70
2017-06-05T18:06:26.723Z,19.70
2017-06-05T18:08:54.357Z,19.70
2017-06-05T18:11:20.621Z,19.60
2017-06-05T18:13:49.817Z,19.60
2017-06-05T18:16:16.233Z,19.50
2017-06-05T18:18:43.062Z,19.20
2017-06-05T18:21:10.698Z,19.10
2017-06-05T18:23:37.829Z,19.10
2017-06-05T18:26:06.562Z,19.00
2017-06-05T18:28:34.178Z,18.90
2017-06-05T18:31:00.921Z,18.90
2017-06-05T18:33:29.053Z,18.80
2017-06-05T18:35:55.442Z,18.80
2017-06-05T18:38:23.968Z,18.70
2017-06-05T18:40:52.121Z,18.70
2017-06-05T18:43:19.581Z,18.70
2017-06-05T18:45:46.574Z,18.60
2017-06-05T18:48:13.296Z,18.60
2017-06-05T18:50:40.540Z,18.50
2017-06-05T18:53:07.463Z,18.50
2017-06-05T18:55:34.482Z,18.40
2017-06-05T18:58:00.800Z,18.30
2017-06-05T19:00:27.206Z,18.30
2017-06-05T19:02:53.542Z,18.40
2017-06-05T19:05:19.849Z,18.40
2017-06-05T19:07:46.165Z,18.40
2017-06-05T19:10:12.482Z,18.40
2017-06-05T19:12:38.840Z,18.40
2017-06-05T19:15:05.129Z,18.30
2017-06-05T19:17:31.449Z,18.30
2017-06-05T19:19:58.025Z,18.10
2017-06-05T19:22:24.367Z,18.00
2017-06-05T19:24:50.679Z,18.00
2017-06-05T19:27:16.997Z,18.00
2017-06-05T19:29:43.339Z,17.80
2017-06-05T19:32:09.986Z,17.80
2017-06-05T19:34:36.326Z,17.70
2017-06-05T19:37:02.933Z,17.70
2017-06-05T19:39:29.397Z,17.60
2017-06-05T19:41:56.164Z,17.40
2017-06-05T19:44:22.765Z,17.40
2017-06-05T19:46:49.067Z,17.40
2017-06-05T19:49:15.378Z,17.30
2017-06-05T19:51:41.702Z,17.30
2017-06-05T19:54:08.198Z,17.20
2017-06-05T19:56:35.099Z,17.10
2017-06-05T19:59:01.450Z,17.00
2017-06-05T20:01:27.781Z,16.90
2017-06-05T20:03:54.087Z,16.80
2017-06-05T20:06:20.458Z,16.80
2017-06-05T20:08:47.207Z,16.80
2017-06-05T20:11:13.637Z,16.80
2017-06-05T20:13:41.036Z,16.80
2017-06-05T20:16:07.430Z,16.80
2017-06-05T20:18:33.734Z,16.80
2017-06-05T20:21:00.144Z,16.80
2017-06-05T20:23:26.475Z,16.80
2017-06-05T20:25:53.130Z,16.90
2017-06-05T20:28:19.478Z,16.80
2017-06-05T20:30:45.846Z,16.90
2017-06-05T20:33:12.556Z,16.80
2017-06-05T20:35:38.871Z,16.70
2017-06-05T20:38:05.149Z,16.70
2017-06-05T20:40:31.636Z,16.70
2017-06-05T20:42:58.498Z,16.60
2017-06-05T20:45:25.240Z,16.70
2017-06-05T20:47:51.515Z,16.60
2017-06-05T20:50:18.156Z,16.60
2017-06-05T20:52:44.461Z,16.50
2017-06-05T20:55:11.756Z,16.70
2017-06-05T20:57:38.414Z,16.70
2017-06-05T21:00:04.710Z,16.60
2017-06-05T21:02:31.184Z,16.50
2017-06-05T21:04:57.476Z,16.60
2017-06-05T21:07:23.798Z,16.50
2017-06-05T21:09:50.124Z,16.60
2017-06-05T21:12:16.452Z,16.50
2017-06-05T21:14:42.733Z,16.60
2017-06-05T21:17:09.035Z,16.50
2017-06-05T21:19:35.315Z,16.50
2017-06-05T21:22:01.674Z,16.60
2017-06-05T21:24:27.929Z,16.50
2017-06-05T21:26:54.210Z,16.50
2017-06-05T21:29:20.516Z,16.60
2017-06-05T21:31:46.790Z,16.50
2017-06-05T21:34:13.090Z,16.60
2017-06-05T21:36:39.367Z,16.60
2017-06-05T21:39:05.661Z,16.70
2017-06-05T21:41:32.378Z,16.60
2017-06-05T21:43:58.697Z,16.60
2017-06-05T21:46:24.961Z,16.60
2017-06-05T21:48:51.312Z,16.60
2017-06-05T21:51:17.612Z,16.50
2017-06-05T21:53:44.274Z,16.20
2017-06-05T21:56:10.548Z,16.20
2017-06-05T21:58:36.861Z,16.20
2017-06-05T22:01:03.156Z,16.20
2017-06-05T22:03:29.431Z,16.20
2017-06-05T22:05:56.069Z,16.30
2017-06-05T22:08:22.324Z,16.40
2017-06-05T22:10:48.589Z,16.30
2017-06-05T22:13:14.885Z,16.20
2017-06-05T22:15:41.514Z,16.10
2017-06-05T22:18:08.052Z,16.10
2017-06-05T22:20:34.369Z,16.10
2017-06-05T22:23:00.617Z,15.90
2017-06-05T22:25:27.264Z,15.80
2017-06-05T22:27:54.083Z,15.80
2017-06-05T22:30:20.408Z,15.70
2017-06-05T22:32:46.696Z,15.80
2017-06-05T22:35:13.806Z,15.80
2017-06-05T22:37:40.716Z,15.80
2017-06-05T22:40:06.968Z,15.80
2017-06-05T22:42:33.238Z,15.80
2017-06-05T22:44:59.512Z,15.80
2017-06-05T22:47:25.773Z,15.90
2017-06-05T22:49:52.344Z,15.80
2017-06-05T22:52:18.626Z,15.90
2017-06-05T22:54:45.261Z,15.80
2017-06-05T22:57:11.958Z,15.70
2017-06-05T22:59:38.237Z,15.70
2017-06-05T23:02:04.526Z,15.80
2017-06-05T23:04:30.985Z,15.60
2017-06-05T23:06:57.417Z,15.80
2017-06-05T23:09:23.754Z,15.80
2017-06-05T23:11:50.026Z,15.60
2017-06-05T23:14:16.304Z,15.30
2017-06-05T23:16:42.571Z,15.20
2017-06-05T23:19:08.840Z,15.30
2017-06-05T23:21:35.133Z,15.40
2017-06-05T23:24:01.391Z,15.50
2017-06-05T23:26:27.694Z,15.60
2017-06-05T23:28:53.989Z,15.50
2017-06-05T23:31:20.250Z,15.50
2017-06-05T23:33:46.533Z,15.40
2017-06-05T23:36:12.792Z,15.40
2017-06-05T23:38:39.073Z,15.50
2017-06-05T23:41:05.349Z,15.40
2017-06-05T23:43:31.632Z,15.50
2017-06-05T23:45:58.083Z,15.40
2017-06-05T23:48:24.354Z,15.40
2017-06-05T23:50:51.040Z,15.40
2017-06-05T23:53:17.302Z,15.10
2017-06-05T23:55:43.591Z,15.20
2017-06-05T23:58:09.865Z,15.30
